Flight Track Log - Related Links

Times and Time Zones

All times are in EDT time to prevent confusion due to time zone crossing. See the PDT4314 flight status page for this flight to view local times or setup timezone preferences in your user account.

Time Position Orientation Groundspeed Altitude Reporting Facility
EDT Latitude Longitude Course Direction KTS MPH feet Rate Location/Type
Mon 04:59:26 PM 39.9000 -75.2333 294° West 131 151 600  Level Philadelphia TRACON
Mon 05:00:26 PM 39.9167 -75.2833 294° West 128 147 2,300 1,550 Climbing Philadelphia TRACON
Mon 05:01:26 PM 39.9333 -75.3167 303° West 126 145 3,700 1,300 Climbing Philadelphia TRACON
Mon 05:02:26 PM 39.9500 -75.3667 294° West 149 171 4,900 1,143 Climbing Philadelphia TRACON
Mon 05:03:32 PM 39.9333 -75.4333 252° West 174 200 6,100 1,095 Climbing Philadelphia TRACON
Mon 05:04:32 PM 39.9333 -75.5000 270° West 165 190 7,200 1,050 Climbing Philadelphia TRACON
Mon 05:05:32 PM 39.9667 -75.5000 360° North 159 183 8,200 875 Climbing Philadelphia TRACON
Mon 05:06:08 PM 39.9933 -75.5097 344° North 169 194 8,600 500 Climbing New York Center
Mon 05:07:08 PM 40.0406 -75.5239 347° North 182 209 9,000 200 Climbing New York Center
Mon 05:08:08 PM 40.0983 -75.5386 349° North 210 242 9,000  Level New York Center
Mon 05:09:08 PM 40.1561 -75.5561 347° North 224 258 9,000  Level New York Center
Mon 05:10:08 PM 40.2119 -75.5656 353° North 219 252 9,000 600 Level New York Center
Mon 05:11:08 PM 40.2558 -75.6147 319° Northwest 193 222 10,200 1,050 Climbing New York Center
Mon 05:12:08 PM 40.2853 -75.6603 310° West 176 203 11,100 800 Climbing New York Center
Mon 05:13:08 PM 40.3147 -75.7061 310° West 166 191 11,800 450 Climbing New York Center
Mon 05:14:08 PM 40.3375 -75.7539 302° West 166 191 12,000 500 Climbing New York Center
Mon 05:15:08 PM 40.3733 -75.7947 319° Northwest 166 191 12,800 750 Climbing New York Center
Mon 05:16:08 PM 40.4203 -75.8172 340° North 160 184 13,500 600 Climbing New York Center
Mon 05:17:08 PM 40.4606 -75.8528 326° Northwest 160 184 14,000 250 Climbing New York Center
Mon 05:18:08 PM 40.5053 -75.8808 335° Northwest 170 196 14,000  Level New York Center
Mon 05:19:08 PM 40.5500 -75.9058 337° Northwest 181 208 14,000  Level New York Center
Mon 05:20:08 PM 40.5983 -75.9425 330° Northwest 196 226 14,000  Level New York Center
Mon 05:21:08 PM 40.6492 -75.9736 335° Northwest 196 226 14,000  Level New York Center
Mon 05:22:08 PM 40.6997 -76.0047 335° Northwest 196 226 14,000  Level New York Center
Mon 05:23:08 PM 40.7500 -76.0469 328° Northwest 196 226 14,000  Level New York Center
Mon 05:24:08 PM 40.8008 -76.0783 335° Northwest 196 226 14,000  Level New York Center
Mon 05:25:08 PM 40.8514 -76.1125 333° Northwest 203 234 14,000  Level New York Center
Mon 05:26:08 PM 40.8914 -76.1483 326° Northwest 196 226 14,000  Level New York Center
Mon 05:27:08 PM 40.9439 -76.1828 334° Northwest 196 226 14,000  Level New York Center
Mon 05:28:08 PM 40.9964 -76.2200 332° Northwest 201 231 14,000  Level New York Center
Mon 05:29:08 PM 41.0483 -76.2214 359° North 196 226 14,000  Level New York Center
Mon 05:30:08 PM 41.1094 -76.2097 North 206 237 14,000  Level New York Center
Mon 05:31:08 PM 41.1758 -76.2125 358° North 218 251 14,000  Level New York Center
Mon 05:32:08 PM 41.2364 -76.2089 North 218 251 14,000  Level New York Center
Mon 05:33:08 PM 41.2969 -76.2056 North 218 251 14,000  Level New York Center
Mon 05:34:08 PM 41.3494 -76.1961 North 218 251 14,000  Level New York Center
Mon 05:35:08 PM 41.4122 -76.1900 North 218 251 14,000 -500 Level New York Center
Mon 05:36:08 PM 41.4811 -76.1872 North 223 257 13,000 -600 Descending New York Center
Mon 05:37:08 PM 41.5461 -76.1786 North 230 265 12,800 -850 Descending New York Center
Mon 05:38:08 PM 41.6172 -76.1706 North 241 277 11,300 -1,500 Descending New York Center
Mon 05:39:08 PM 41.6817 -76.1731 358° North 254 292 9,800 -1,150 Descending New York Center
Mon 05:40:08 PM 41.7525 -76.1731 360° North 254 292 9,000 -700 Descending New York Center
Mon 05:41:08 PM 41.8236 -76.1678 North 243 280 8,400 -1,100 Descending New York Center
Mon 05:42:08 PM 41.8792 -76.1361 23° Northeast 218 251 6,800 -1,600 Descending New York Center
Mon 05:43:08 PM 41.9156 -76.0667 55° Northeast 213 245 5,200 -1,350 Descending New York Center
Mon 05:44:08 PM 41.9494 -76.0053 53° Northeast 223 257 4,100 -600 Descending New York Center
Mon 05:45:08 PM 41.9947 -75.9278 52° Northeast 228 262 4,000 -50 Descending New York Center
Mon 05:46:08 PM 42.0306 -75.8664 52° Northeast 222 255 4,000  Level New York Center
Mon 05:47:08 PM 42.0581 -75.8069 58° Northeast 203 234 4,000  Level New York Center
Mon 05:48:08 PM 42.0222 -75.7653 139° Southeast 141 162 4,000  Level New York Center
Mon 05:49:08 PM 41.9864 -75.7264 141° Southeast 156 180 4,000  Level New York Center
Mon 05:50:08 PM 41.9542 -75.7544 213° Southwest 121 139 4,000  Level New York Center
Mon 05:51:08 PM 41.9333 -75.8003 239° Southwest 134 154 4,000  Level New York Center
Mon 05:52:08 PM 41.9228 -75.8525 255° West 149 171 4,000  Level New York Center
Mon 05:54:00 PM 42.0201 -75.8957 342° North  Level Estimated
Mon 06:01:00 PM 42.2086 -75.9797 342° North  Level Estimated
Mon 06:02:00 PM 42.2086 -75.9797 200° South  Level Estimated
Mon 06:03:00 PM 42.2086 -75.9797 200° South  Level Estimated
Mon 06:04:00 PM 42.2086 -75.9797 200° South  Level Estimated
Mon 06:05:00 PM 42.2086 -75.9797 200° South  Level Estimated
Mon 06:06:00 PM 42.2086 -75.9797 200° South  Level Estimated
Mon 06:07:00 PM 42.2086 -75.9797 200° South  Level Estimated
Mon 06:08:00 PM 42.2086 -75.9797 200° South  Level Estimated
Mon 06:09:00 PM 42.2086 -75.9797 200° South  Level Estimated

Login

Don't have an account? Register now (free) for customized features, flight alerts, and more!